sensor_id;sensor_type;location;lat;lon;timestamp;pressure;altitude;pressure_sealevel;temperature;humidity
67697;BME280;54486;51.442;6.778;2024-02-14T00:01:33;77086.13;;;-141.21;60.56
67697;BME280;54486;51.442;6.778;2024-02-14T00:04:00;77104.16;;;-141.21;60.86
67697;BME280;54486;51.442;6.778;2024-02-14T00:06:28;77108.16;;;-141.21;61.32
67697;BME280;54486;51.442;6.778;2024-02-14T00:08:57;77106.16;;;-141.21;61.50
67697;BME280;54486;51.442;6.778;2024-02-14T00:11:24;77102.16;;;-141.21;61.48
67697;BME280;54486;51.442;6.778;2024-02-14T00:13:51;77114.16;;;-141.21;61.91
67697;BME280;54486;51.442;6.778;2024-02-14T00:16:19;77102.16;;;-141.21;61.90
67697;BME280;54486;51.442;6.778;2024-02-14T00:18:45;77092.13;;;-141.21;61.70
67697;BME280;54486;51.442;6.778;2024-02-14T00:21:13;77090.13;;;-141.21;61.94
67697;BME280;54486;51.442;6.778;2024-02-14T00:23:40;77092.13;;;-141.21;61.82
67697;BME280;54486;51.442;6.778;2024-02-14T00:26:07;77098.13;;;-141.21;62.01
67697;BME280;54486;51.442;6.778;2024-02-14T00:28:35;77090.13;;;-141.21;62.06
67697;BME280;54486;51.442;6.778;2024-02-14T00:31:03;77090.13;;;-141.21;62.18
67697;BME280;54486;51.442;6.778;2024-02-14T00:33:30;77094.13;;;-141.21;62.14
67697;BME280;54486;51.442;6.778;2024-02-14T00:35:58;77090.13;;;-141.21;62.42
67697;BME280;54486;51.442;6.778;2024-02-14T00:38:25;77094.13;;;-141.21;62.26
67697;BME280;54486;51.442;6.778;2024-02-14T00:40:52;77090.13;;;-141.21;62.49
67697;BME280;54486;51.442;6.778;2024-02-14T00:43:19;77090.13;;;-141.21;62.58
67697;BME280;54486;51.442;6.778;2024-02-14T00:45:46;77094.13;;;-141.21;62.51
67697;BME280;54486;51.442;6.778;2024-02-14T00:48:14;77094.13;;;-141.21;62.88
67697;BME280;54486;51.442;6.778;2024-02-14T00:50:42;77086.13;;;-141.21;62.73
67697;BME280;54486;51.442;6.778;2024-02-14T00:53:09;77086.13;;;-141.21;62.75
67697;BME280;54486;51.442;6.778;2024-02-14T00:55:36;77090.13;;;-141.21;62.80
67697;BME280;54486;51.442;6.778;2024-02-14T00:58:03;77082.13;;;-141.21;63.06
67697;BME280;54486;51.442;6.778;2024-02-14T01:00:32;77082.13;;;-141.21;63.04
67697;BME280;54486;51.442;6.778;2024-02-14T01:03:02;77074.13;;;-141.21;62.92
67697;BME280;54486;51.442;6.778;2024-02-14T01:05:30;77078.13;;;-141.21;63.09
67697;BME280;54486;51.442;6.778;2024-02-14T01:07:57;77074.13;;;-141.21;63.17
67697;BME280;54486;51.442;6.778;2024-02-14T01:10:24;77070.13;;;-141.21;63.40
67697;BME280;54486;51.442;6.778;2024-02-14T01:12:52;77066.13;;;-141.21;63.34
67697;BME280;54486;51.442;6.778;2024-02-14T01:15:18;77060.13;;;-141.21;63.44
67697;BME280;54486;51.442;6.778;2024-02-14T01:17:47;77054.09;;;-141.21;63.40
67697;BME280;54486;51.442;6.778;2024-02-14T01:20:14;77062.13;;;-141.21;63.50
67697;BME280;54486;51.442;6.778;2024-02-14T01:22:42;77066.13;;;-141.21;63.22
67697;BME280;54486;51.442;6.778;2024-02-14T01:25:09;77066.13;;;-141.21;63.58
67697;BME280;54486;51.442;6.778;2024-02-14T01:27:39;77064.13;;;-141.21;63.60
67697;BME280;54486;51.442;6.778;2024-02-14T01:30:07;77050.09;;;-141.21;63.59
67697;BME280;54486;51.442;6.778;2024-02-14T01:32:34;77054.09;;;-141.21;63.44
67697;BME280;54486;51.442;6.778;2024-02-14T01:35:02;77048.09;;;-141.21;63.50
67697;BME280;54486;51.442;6.778;2024-02-14T01:37:31;77058.13;;;-141.21;63.65
67697;BME280;54486;51.442;6.778;2024-02-14T01:39:58;77058.13;;;-141.21;63.65
67697;BME280;54486;51.442;6.778;2024-02-14T01:42:26;77082.13;;;-141.21;63.89
67697;BME280;54486;51.442;6.778;2024-02-14T01:44:55;77070.13;;;-141.21;63.91
67697;BME280;54486;51.442;6.778;2024-02-14T01:47:22;77066.13;;;-141.21;63.72
67697;BME280;54486;51.442;6.778;2024-02-14T01:49:49;77054.09;;;-141.21;63.63
67697;BME280;54486;51.442;6.778;2024-02-14T01:52:16;77062.13;;;-141.21;63.49
67697;BME280;54486;51.442;6.778;2024-02-14T01:54:44;77058.13;;;-141.21;64.01
67697;BME280;54486;51.442;6.778;2024-02-14T01:57:12;77050.09;;;-141.21;63.68
67697;BME280;54486;51.442;6.778;2024-02-14T01:59:39;77060.13;;;-141.21;63.46
67697;BME280;54486;51.442;6.778;2024-02-14T02:02:07;77058.13;;;-141.21;63.71
67697;BME280;54486;51.442;6.778;2024-02-14T02:04:34;77060.13;;;-141.21;63.45
67697;BME280;54486;51.442;6.778;2024-02-14T02:07:02;77050.09;;;-141.21;63.54
67697;BME280;54486;51.442;6.778;2024-02-14T02:09:29;77050.09;;;-141.21;63.48
67697;BME280;54486;51.442;6.778;2024-02-14T02:11:59;77058.13;;;-141.21;63.70
67697;BME280;54486;51.442;6.778;2024-02-14T02:14:28;77054.09;;;-141.21;63.63
67697;BME280;54486;51.442;6.778;2024-02-14T02:16:57;77058.13;;;-141.21;63.94
67697;BME280;54486;51.442;6.778;2024-02-14T02:19:25;77058.13;;;-141.21;63.71
67697;BME280;54486;51.442;6.778;2024-02-14T02:21:52;77058.13;;;-141.21;63.72
67697;BME280;54486;51.442;6.778;2024-02-14T02:24:20;77060.13;;;-141.21;63.78
67697;BME280;54486;51.442;6.778;2024-02-14T02:26:47;77058.13;;;-141.21;63.84
67697;BME280;54486;51.442;6.778;2024-02-14T02:29:15;77066.13;;;-141.21;64.08
67697;BME280;54486;51.442;6.778;2024-02-14T02:31:43;77062.13;;;-141.21;63.96
67697;BME280;54486;51.442;6.778;2024-02-14T02:34:11;77050.09;;;-141.21;63.92
67697;BME280;54486;51.442;6.778;2024-02-14T02:36:42;77058.13;;;-141.21;64.16
67697;BME280;54486;51.442;6.778;2024-02-14T02:39:12;77074.13;;;-141.21;64.16
67697;BME280;54486;51.442;6.778;2024-02-14T02:41:39;77050.09;;;-141.21;64.20
67697;BME280;54486;51.442;6.778;2024-02-14T02:44:07;77062.13;;;-141.21;64.17
67697;BME280;54486;51.442;6.778;2024-02-14T02:46:34;77058.13;;;-141.21;64.33
67697;BME280;54486;51.442;6.778;2024-02-14T02:49:02;77056.09;;;-141.21;64.41
67697;BME280;54486;51.442;6.778;2024-02-14T02:51:30;77046.09;;;-141.21;64.23
67697;BME280;54486;51.442;6.778;2024-02-14T02:53:58;77058.13;;;-141.21;64.29
67697;BME280;54486;51.442;6.778;2024-02-14T02:56:25;77066.13;;;-141.21;64.33
67697;BME280;54486;51.442;6.778;2024-02-14T02:58:55;77048.09;;;-141.21;64.65
67697;BME280;54486;51.442;6.778;2024-02-14T03:01:22;77062.13;;;-141.21;65.05
67697;BME280;54486;51.442;6.778;2024-02-14T03:03:52;77068.13;;;-141.21;64.89
67697;BME280;54486;51.442;6.778;2024-02-14T03:06:19;77070.13;;;-141.21;64.82
67697;BME280;54486;51.442;6.778;2024-02-14T03:08:47;77070.13;;;-141.21;65.31
67697;BME280;54486;51.442;6.778;2024-02-14T03:11:16;77040.09;;;-141.21;64.89
67697;BME280;54486;51.442;6.778;2024-02-14T03:13:43;77058.13;;;-141.21;64.65
67697;BME280;54486;51.442;6.778;2024-02-14T03:16:12;77056.09;;;-141.21;65.25
67697;BME280;54486;51.442;6.778;2024-02-14T03:18:39;77060.13;;;-141.21;65.19
67697;BME280;54486;51.442;6.778;2024-02-14T03:21:07;77086.13;;;-141.21;65.57
67697;BME280;54486;51.442;6.778;2024-02-14T03:23:35;77062.13;;;-141.21;65.77
67697;BME280;54486;51.442;6.778;2024-02-14T03:26:03;77054.09;;;-141.21;65.62
67697;BME280;54486;51.442;6.778;2024-02-14T03:28:35;77062.13;;;-141.21;65.49
67697;BME280;54486;51.442;6.778;2024-02-14T03:31:03;77050.09;;;-141.21;65.67
67697;BME280;54486;51.442;6.778;2024-02-14T03:33:30;77058.13;;;-141.21;65.67
67697;BME280;54486;51.442;6.778;2024-02-14T03:35:58;77098.13;;;-141.21;66.40
67697;BME280;54486;51.442;6.778;2024-02-14T03:38:27;77056.09;;;-141.21;66.11
67697;BME280;54486;51.442;6.778;2024-02-14T03:40:55;77050.09;;;-141.21;65.99
67697;BME280;54486;51.442;6.778;2024-02-14T03:43:22;77060.13;;;-141.21;66.21
67697;BME280;54486;51.442;6.778;2024-02-14T03:45:50;77058.13;;;-141.21;66.64
67697;BME280;54486;51.442;6.778;2024-02-14T03:48:21;77080.13;;;-141.21;66.88
67697;BME280;54486;51.442;6.778;2024-02-14T03:50:49;77070.13;;;-141.21;66.66
67697;BME280;54486;51.442;6.778;2024-02-14T03:53:16;77070.13;;;-141.21;66.84
67697;BME280;54486;51.442;6.778;2024-02-14T03:55:44;77066.13;;;-141.21;66.99
67697;BME280;54486;51.442;6.778;2024-02-14T03:58:12;77072.13;;;-141.21;67.19
67697;BME280;54486;51.442;6.778;2024-02-14T04:00:41;77088.13;;;-141.21;67.44
67697;BME280;54486;51.442;6.778;2024-02-14T04:03:13;77066.13;;;-141.21;66.88
67697;BME280;54486;51.442;6.778;2024-02-14T04:05:40;77042.09;;;-141.21;66.38
67697;BME280;54486;51.442;6.778;2024-02-14T04:08:08;77058.13;;;-141.21;66.93
67697;BME280;54486;51.442;6.778;2024-02-14T04:10:37;77052.09;;;-141.21;66.76
67697;BME280;54486;51.442;6.778;2024-02-14T04:13:04;77038.09;;;-141.21;66.52
67697;BME280;54486;51.442;6.778;2024-02-14T04:15:32;77060.13;;;-141.21;66.92
67697;BME280;54486;51.442;6.778;2024-02-14T04:17:59;77068.13;;;-141.21;66.93
67697;BME280;54486;51.442;6.778;2024-02-14T04:20:33;77076.13;;;-141.21;67.11
67697;BME280;54486;51.442;6.778;2024-02-14T04:23:01;77086.13;;;-141.21;67.54
67697;BME280;54486;51.442;6.778;2024-02-14T04:25:28;77090.13;;;-141.21;67.71
67697;BME280;54486;51.442;6.778;2024-02-14T04:27:55;77058.13;;;-141.21;67.18
67697;BME280;54486;51.442;6.778;2024-02-14T04:30:23;77068.13;;;-141.21;67.12
67697;BME280;54486;51.442;6.778;2024-02-14T04:32:50;77064.13;;;-141.21;66.82
67697;BME280;54486;51.442;6.778;2024-02-14T04:35:20;77076.13;;;-141.21;67.46
67697;BME280;54486;51.442;6.778;2024-02-14T04:37:47;77070.13;;;-141.21;67.47
67697;BME280;54486;51.442;6.778;2024-02-14T04:40:16;77068.13;;;-141.21;67.11
67697;BME280;54486;51.442;6.778;2024-02-14T04:42:43;77078.13;;;-141.21;67.16
67697;BME280;54486;51.442;6.778;2024-02-14T04:45:11;77056.09;;;-141.21;66.92
67697;BME280;54486;51.442;6.778;2024-02-14T04:47:38;77074.13;;;-141.21;67.20
67697;BME280;54486;51.442;6.778;2024-02-14T04:50:05;77088.13;;;-141.21;67.38
67697;BME280;54486;51.442;6.778;2024-02-14T04:52:33;77074.13;;;-141.21;67.12
67697;BME280;54486;51.442;6.778;2024-02-14T04:55:01;77074.13;;;-141.21;67.28
67697;BME280;54486;51.442;6.778;2024-02-14T04:57:28;77094.13;;;-141.21;67.22
67697;BME280;54486;51.442;6.778;2024-02-14T04:59:55;77088.13;;;-141.21;67.61
67697;BME280;54486;51.442;6.778;2024-02-14T05:02:22;77102.16;;;-141.21;67.96
67697;BME280;54486;51.442;6.778;2024-02-14T05:04:50;77084.13;;;-141.21;67.40
67697;BME280;54486;51.442;6.778;2024-02-14T05:07:17;77088.13;;;-141.21;67.60
67697;BME280;54486;51.442;6.778;2024-02-14T05:09:44;77102.16;;;-141.21;67.70
67697;BME280;54486;51.442;6.778;2024-02-14T05:12:11;77106.16;;;-141.21;67.96
67697;BME280;54486;51.442;6.778;2024-02-14T05:14:39;77086.13;;;-141.21;67.27
67697;BME280;54486;51.442;6.778;2024-02-14T05:17:08;77108.16;;;-141.21;67.62
67697;BME280;54486;51.442;6.778;2024-02-14T05:19:35;77106.16;;;-141.21;67.79
67697;BME280;54486;51.442;6.778;2024-02-14T05:22:04;77118.16;;;-141.21;68.02
67697;BME280;54486;51.442;6.778;2024-02-14T05:24:31;77090.13;;;-141.21;67.59
67697;BME280;54486;51.442;6.778;2024-02-14T05:26:58;77110.16;;;-141.21;67.89
67697;BME280;54486;51.442;6.778;2024-02-14T05:29:25;77098.13;;;-141.21;67.60
67697;BME280;54486;51.442;6.778;2024-02-14T05:31:53;77102.16;;;-141.21;67.97
67697;BME280;54486;51.442;6.778;2024-02-14T05:34:22;77118.16;;;-141.21;67.96
67697;BME280;54486;51.442;6.778;2024-02-14T05:36:49;77122.16;;;-141.21;68.32
67697;BME280;54486;51.442;6.778;2024-02-14T05:39:18;77106.16;;;-141.21;68.09
67697;BME280;54486;51.442;6.778;2024-02-14T05:41:46;77098.13;;;-141.21;67.93
67697;BME280;54486;51.442;6.778;2024-02-14T05:44:13;77108.16;;;-141.21;68.30
67697;BME280;54486;51.442;6.778;2024-02-14T05:46:40;77106.16;;;-141.21;68.31
67697;BME280;54486;51.442;6.778;2024-02-14T05:49:08;77098.13;;;-141.21;68.01
67697;BME280;54486;51.442;6.778;2024-02-14T05:51:40;77094.13;;;-141.21;68.05
67697;BME280;54486;51.442;6.778;2024-02-14T05:54:07;77108.16;;;-141.21;68.34
67697;BME280;54486;51.442;6.778;2024-02-14T05:56:35;77112.16;;;-141.21;68.61
67697;BME280;54486;51.442;6.778;2024-02-14T05:59:02;77100.16;;;-141.21;68.67
67697;BME280;54486;51.442;6.778;2024-02-14T06:01:29;77098.13;;;-141.21;68.17
67697;BME280;54486;51.442;6.778;2024-02-14T06:03:57;77110.16;;;-141.21;68.47
67697;BME280;54486;51.442;6.778;2024-02-14T06:06:24;77114.16;;;-141.21;68.75
67697;BME280;54486;51.442;6.778;2024-02-14T06:08:52;77138.19;;;-141.21;69.81
67697;BME280;54486;51.442;6.778;2024-02-14T06:11:19;77110.16;;;-141.21;69.28
67697;BME280;54486;51.442;6.778;2024-02-14T06:13:48;77114.16;;;-141.21;69.22
67697;BME280;54486;51.442;6.778;2024-02-14T06:16:15;77128.16;;;-141.21;69.54
67697;BME280;54486;51.442;6.778;2024-02-14T06:18:43;77114.16;;;-141.21;69.17
67697;BME280;54486;51.442;6.778;2024-02-14T06:21:11;77126.16;;;-141.21;69.84
67697;BME280;54486;51.442;6.778;2024-02-14T06:23:39;77116.16;;;-141.21;69.36
67697;BME280;54486;51.442;6.778;2024-02-14T06:26:06;77130.16;;;-141.21;69.78
67697;BME280;54486;51.442;6.778;2024-02-14T06:28:34;77120.16;;;-141.21;69.66
67697;BME280;54486;51.442;6.778;2024-02-14T06:31:01;77118.16;;;-141.21;69.65
67697;BME280;54486;51.442;6.778;2024-02-14T06:33:29;77130.16;;;-141.21;69.82
67697;BME280;54486;51.442;6.778;2024-02-14T06:35:57;77126.16;;;-141.21;69.96
67697;BME280;54486;51.442;6.778;2024-02-14T06:38:24;77130.16;;;-141.21;69.95
67697;BME280;54486;51.442;6.778;2024-02-14T06:40:52;77118.16;;;-141.21;69.74
67697;BME280;54486;51.442;6.778;2024-02-14T06:43:19;77122.16;;;-141.21;69.82
67697;BME280;54486;51.442;6.778;2024-02-14T06:45:47;77132.16;;;-141.21;69.86
67697;BME280;54486;51.442;6.778;2024-02-14T06:48:17;77118.16;;;-141.21;69.72
67697;BME280;54486;51.442;6.778;2024-02-14T06:50:50;77114.16;;;-141.21;69.40
67697;BME280;54486;51.442;6.778;2024-02-14T06:53:17;77142.19;;;-141.21;70.16
67697;BME280;54486;51.442;6.778;2024-02-14T06:55:45;77126.16;;;-141.21;69.75
67697;BME280;54486;51.442;6.778;2024-02-14T06:58:13;77112.16;;;-141.21;69.42
67697;BME280;54486;51.442;6.778;2024-02-14T07:00:41;77110.16;;;-141.21;69.50
67697;BME280;54486;51.442;6.778;2024-02-14T07:03:09;77110.16;;;-141.21;69.24
67697;BME280;54486;51.442;6.778;2024-02-14T07:05:37;77118.16;;;-141.21;69.32
67697;BME280;54486;51.442;6.778;2024-02-14T07:08:05;77126.16;;;-141.21;69.58
67697;BME280;54486;51.442;6.778;2024-02-14T07:10:33;77132.16;;;-141.21;69.77
67697;BME280;54486;51.442;6.778;2024-02-14T07:13:00;77138.19;;;-141.21;70.07
67697;BME280;54486;51.442;6.778;2024-02-14T07:15:27;77138.19;;;-141.21;70.10
67697;BME280;54486;51.442;6.778;2024-02-14T07:17:55;77154.19;;;-141.21;70.05
67697;BME280;54486;51.442;6.778;2024-02-14T07:20:25;77142.19;;;-141.21;70.27
67697;BME280;54486;51.442;6.778;2024-02-14T07:22:55;77138.19;;;-141.21;70.06
67697;BME280;54486;51.442;6.778;2024-02-14T07:25:23;77132.16;;;-141.21;70.42
67697;BME280;54486;51.442;6.778;2024-02-14T07:27:51;77142.19;;;-141.21;70.39
67697;BME280;54486;51.442;6.778;2024-02-14T07:30:18;77158.19;;;-141.21;70.72
67697;BME280;54486;51.442;6.778;2024-02-14T07:32:45;77146.19;;;-141.21;70.02
67697;BME280;54486;51.442;6.778;2024-02-14T07:35:13;77106.16;;;-141.21;68.90
67697;BME280;54486;51.442;6.778;2024-02-14T07:37:40;77102.16;;;-141.21;69.02
67697;BME280;54486;51.442;6.778;2024-02-14T07:40:10;77126.16;;;-141.21;69.75
67697;BME280;54486;51.442;6.778;2024-02-14T07:42:39;77166.19;;;-141.21;70.84
67697;BME280;54486;51.442;6.778;2024-02-14T07:45:06;77168.19;;;-141.21;71.04
67697;BME280;54486;51.442;6.778;2024-02-14T07:47:33;77170.19;;;-141.21;71.21
67697;BME280;54486;51.442;6.778;2024-02-14T07:50:02;77154.19;;;-141.21;70.89
67697;BME280;54486;51.442;6.778;2024-02-14T07:52:30;77162.19;;;-141.21;70.91
67697;BME280;54486;51.442;6.778;2024-02-14T07:55:02;77158.19;;;-141.21;70.89
67697;BME280;54486;51.442;6.778;2024-02-14T07:57:29;77158.19;;;-141.21;70.91
67697;BME280;54486;51.442;6.778;2024-02-14T07:59:57;77150.19;;;-141.21;70.58
67697;BME280;54486;51.442;6.778;2024-02-14T08:02:24;77156.19;;;-141.21;70.69
67697;BME280;54486;51.442;6.778;2024-02-14T08:04:51;77134.16;;;-141.21;70.41
67697;BME280;54486;51.442;6.778;2024-02-14T08:07:19;77126.16;;;-141.21;70.07
67697;BME280;54486;51.442;6.778;2024-02-14T08:09:46;77138.19;;;-141.21;70.41
67697;BME280;54486;51.442;6.778;2024-02-14T08:12:13;77136.16;;;-141.21;70.40
67697;BME280;54486;51.442;6.778;2024-02-14T08:14:41;77138.19;;;-141.21;70.13
67697;BME280;54486;51.442;6.778;2024-02-14T08:17:09;77138.19;;;-141.21;70.22
67697;BME280;54486;51.442;6.778;2024-02-14T08:19:36;77130.16;;;-141.21;70.22
67697;BME280;54486;51.442;6.778;2024-02-14T08:22:03;77130.16;;;-141.21;70.16
67697;BME280;54486;51.442;6.778;2024-02-14T08:24:31;77134.16;;;-141.21;70.31
67697;BME280;54486;51.442;6.778;2024-02-14T08:26:58;77134.16;;;-141.21;70.32
67697;BME280;54486;51.442;6.778;2024-02-14T08:29:26;77132.16;;;-141.21;70.20
67697;BME280;54486;51.442;6.778;2024-02-14T08:31:52;77106.16;;;-141.21;69.45
67697;BME280;54486;51.442;6.778;2024-02-14T08:34:20;77110.16;;;-141.21;69.38
67697;BME280;54486;51.442;6.778;2024-02-14T08:36:48;77134.16;;;-141.21;69.92
67697;BME280;54486;51.442;6.778;2024-02-14T08:39:15;77130.16;;;-141.21;69.94
67697;BME280;54486;51.442;6.778;2024-02-14T08:41:43;77114.16;;;-141.21;69.62
67697;BME280;54486;51.442;6.778;2024-02-14T08:44:16;77130.16;;;-141.21;69.72
67697;BME280;54486;51.442;6.778;2024-02-14T08:46:44;77114.16;;;-141.21;69.56
67697;BME280;54486;51.442;6.778;2024-02-14T08:49:16;77134.16;;;-141.21;70.08
67697;BME280;54486;51.442;6.778;2024-02-14T08:51:43;77126.16;;;-141.21;69.86
67697;BME280;54486;51.442;6.778;2024-02-14T08:54:13;77130.16;;;-141.21;69.83
67697;BME280;54486;51.442;6.778;2024-02-14T08:56:41;77122.16;;;-141.21;69.89
67697;BME280;54486;51.442;6.778;2024-02-14T08:59:09;77120.16;;;-141.21;69.59
67697;BME280;54486;51.442;6.778;2024-02-14T09:01:38;77118.16;;;-141.21;69.66
67697;BME280;54486;51.442;6.778;2024-02-14T09:04:05;77126.16;;;-141.21;70.06
67697;BME280;54486;51.442;6.778;2024-02-14T09:06:33;77114.16;;;-141.21;69.58
67697;BME280;54486;51.442;6.778;2024-02-14T09:09:01;77110.16;;;-141.21;69.57
67697;BME280;54486;51.442;6.778;2024-02-14T09:11:29;77098.13;;;-141.21;69.32
67697;BME280;54486;51.442;6.778;2024-02-14T09:13:57;77120.16;;;-141.21;69.72
67697;BME280;54486;51.442;6.778;2024-02-14T09:16:31;77106.16;;;-141.21;69.46
67697;BME280;54486;51.442;6.778;2024-02-14T09:18:59;77102.16;;;-141.21;69.48
67697;BME280;54486;51.442;6.778;2024-02-14T09:21:28;77098.13;;;-141.21;69.32
67697;BME280;54486;51.442;6.778;2024-02-14T09:23:56;77110.16;;;-141.21;69.59
67697;BME280;54486;51.442;6.778;2024-02-14T09:26:25;77102.16;;;-141.21;69.56
67697;BME280;54486;51.442;6.778;2024-02-14T09:28:54;77110.16;;;-141.21;69.85
67697;BME280;54486;51.442;6.778;2024-02-14T09:31:21;77094.13;;;-141.21;69.46
67697;BME280;54486;51.442;6.778;2024-02-14T09:33:49;77108.16;;;-141.21;70.01
67697;BME280;54486;51.442;6.778;2024-02-14T09:36:17;77110.16;;;-141.21;70.13
67697;BME280;54486;51.442;6.778;2024-02-14T09:38:44;77100.16;;;-141.21;69.88
67697;BME280;54486;51.442;6.778;2024-02-14T09:41:17;77100.16;;;-141.21;70.09
67697;BME280;54486;51.442;6.778;2024-02-14T09:43:49;77088.13;;;-141.21;69.66
67697;BME280;54486;51.442;6.778;2024-02-14T09:46:16;77102.16;;;-141.21;69.96
67697;BME280;54486;51.442;6.778;2024-02-14T09:48:45;77110.16;;;-141.21;70.28
67697;BME280;54486;51.442;6.778;2024-02-14T09:51:12;77126.16;;;-141.21;70.66
67697;BME280;54486;51.442;6.778;2024-02-14T09:53:40;77098.13;;;-141.21;70.02
67697;BME280;54486;51.442;6.778;2024-02-14T09:56:14;77128.16;;;-141.21;70.39
67697;BME280;54486;51.442;6.778;2024-02-14T09:58:46;77126.16;;;-141.21;70.31
67697;BME280;54486;51.442;6.778;2024-02-14T10:01:28;77160.19;;;-141.21;71.04
67697;BME280;54486;51.442;6.778;2024-02-14T10:03:56;77136.16;;;-141.21;70.41
67697;BME280;54486;51.442;6.778;2024-02-14T10:06:23;77134.16;;;-141.21;70.43
67697;BME280;54486;51.442;6.778;2024-02-14T10:08:53;77118.16;;;-141.21;69.92
67697;BME280;54486;51.442;6.778;2024-02-14T10:11:33;77110.16;;;-141.21;69.77
67697;BME280;54486;51.442;6.778;2024-02-14T10:14:01;77118.16;;;-141.21;70.25
67697;BME280;54486;51.442;6.778;2024-02-14T10:16:34;77090.13;;;-141.21;69.64
67697;BME280;54486;51.442;6.778;2024-02-14T10:19:02;77110.16;;;-141.21;69.64
67697;BME280;54486;51.442;6.778;2024-02-14T10:21:31;77112.16;;;-141.21;69.74
67697;BME280;54486;51.442;6.778;2024-02-14T10:24:00;77114.16;;;-141.21;69.98
67697;BME280;54486;51.442;6.778;2024-02-14T10:26:29;77126.16;;;-141.21;70.24
67697;BME280;54486;51.442;6.778;2024-02-14T10:28:57;77102.16;;;-141.21;69.46
67697;BME280;54486;51.442;6.778;2024-02-14T10:31:25;77118.16;;;-141.21;70.04
67697;BME280;54486;51.442;6.778;2024-02-14T10:33:54;77106.16;;;-141.21;69.65
67697;BME280;54486;51.442;6.778;2024-02-14T10:36:24;77114.16;;;-141.21;69.92
67697;BME280;54486;51.442;6.778;2024-02-14T10:38:51;77130.16;;;-141.21;70.64
67697;BME280;54486;51.442;6.778;2024-02-14T10:41:18;77114.16;;;-141.21;70.36
67697;BME280;54486;51.442;6.778;2024-02-14T10:43:46;77110.16;;;-141.21;70.65
67697;BME280;54486;51.442;6.778;2024-02-14T10:46:22;77108.16;;;-141.21;70.41
67697;BME280;54486;51.442;6.778;2024-02-14T10:48:54;77120.16;;;-141.21;70.83
67697;BME280;54486;51.442;6.778;2024-02-14T10:51:28;77136.16;;;-141.21;71.54
67697;BME280;54486;51.442;6.778;2024-02-14T10:54:00;77122.16;;;-141.21;70.95
67697;BME280;54486;51.442;6.778;2024-02-14T10:56:30;77126.16;;;-141.21;71.46
67697;BME280;54486;51.442;6.778;2024-02-14T10:59:01;77126.16;;;-141.21;71.22
67697;BME280;54486;51.442;6.778;2024-02-14T11:01:29;77138.19;;;-141.21;71.98
67697;BME280;54486;51.442;6.778;2024-02-14T11:04:00;77130.16;;;-141.21;71.58
67697;BME280;54486;51.442;6.778;2024-02-14T11:06:28;77108.16;;;-141.21;71.03
67697;BME280;54486;51.442;6.778;2024-02-14T11:09:01;77130.16;;;-141.21;71.74
67697;BME280;54486;51.442;6.778;2024-02-14T11:11:33;77126.16;;;-141.21;71.64
67697;BME280;54486;51.442;6.778;2024-02-14T11:14:02;77142.19;;;-141.21;72.17
67697;BME280;54486;51.442;6.778;2024-02-14T11:16:31;77134.16;;;-141.21;71.98
67697;BME280;54486;51.442;6.778;2024-02-14T11:19:11;77130.16;;;-141.21;71.85
67697;BME280;54486;51.442;6.778;2024-02-14T11:21:44;77128.16;;;-141.21;71.80
67697;BME280;54486;51.442;6.778;2024-02-14T11:24:15;77128.16;;;-141.21;72.17
67697;BME280;54486;51.442;6.778;2024-02-14T11:26:47;77114.16;;;-141.21;71.50
67697;BME280;54486;51.442;6.778;2024-02-14T11:29:17;77110.16;;;-141.21;71.48
67697;BME280;54486;51.442;6.778;2024-02-14T11:31:57;77106.16;;;-141.21;71.03
67697;BME280;54486;51.442;6.778;2024-02-14T11:34:26;77114.16;;;-141.21;71.43
67697;BME280;54486;51.442;6.778;2024-02-14T11:36:54;77114.16;;;-141.21;71.41
67697;BME280;54486;51.442;6.778;2024-02-14T11:39:21;77098.13;;;-141.21;71.13
67697;BME280;54486;51.442;6.778;2024-02-14T11:41:49;77106.16;;;-141.21;71.54
67697;BME280;54486;51.442;6.778;2024-02-14T11:44:19;77100.16;;;-141.21;71.29
67697;BME280;54486;51.442;6.778;2024-02-14T11:46:50;77098.13;;;-141.21;71.53
67697;BME280;54486;51.442;6.778;2024-02-14T11:49:17;77102.16;;;-141.21;71.74
67697;BME280;54486;51.442;6.778;2024-02-14T11:51:46;77100.16;;;-141.21;71.65
67697;BME280;54486;51.442;6.778;2024-02-14T11:54:15;77092.13;;;-141.21;71.44
67697;BME280;54486;51.442;6.778;2024-02-14T11:56:43;77024.09;;;-141.21;69.58
67697;BME280;54486;51.442;6.778;2024-02-14T11:59:12;77054.09;;;-141.21;71.88
67697;BME280;54486;51.442;6.778;2024-02-14T12:01:39;77014.06;;;-141.21;72.57
67697;BME280;54486;51.442;6.778;2024-02-14T12:04:10;76885.97;;;-141.21;71.03
67697;BME280;54486;51.442;6.778;2024-02-14T12:06:40;76869.97;;;-141.21;71.00
67697;BME280;54486;51.442;6.778;2024-02-14T12:09:11;76765.91;;;-141.21;69.32
67697;BME280;54486;51.442;6.778;2024-02-14T12:11:41;76681.84;;;-141.21;68.59
67697;BME280;54486;51.442;6.778;2024-02-14T12:14:13;76557.75;;;-141.21;66.60
67697;BME280;54486;51.442;6.778;2024-02-14T12:16:42;76477.72;;;-141.21;65.48
67697;BME280;54486;51.442;6.778;2024-02-14T12:19:14;76429.69;;;-141.21;65.47
67697;BME280;54486;51.442;6.778;2024-02-14T12:21:44;76423.69;;;-141.21;65.53
67697;BME280;54486;51.442;6.778;2024-02-14T12:24:14;76371.66;;;-141.21;65.14
67697;BME280;54486;51.442;6.778;2024-02-14T12:26:42;76307.63;;;-141.21;66.46
67697;BME280;54486;51.442;6.778;2024-02-14T12:29:11;76225.56;;;-141.21;65.01
67697;BME280;54486;51.442;6.778;2024-02-14T12:31:40;76253.59;;;-141.21;66.21
67697;BME280;54486;51.442;6.778;2024-02-14T12:34:11;76221.56;;;-141.21;66.53
67697;BME280;54486;51.442;6.778;2024-02-14T12:36:40;76171.53;;;-141.21;65.85
67697;BME280;54486;51.442;6.778;2024-02-14T12:39:07;76201.56;;;-141.21;65.62
67697;BME280;54486;51.442;6.778;2024-02-14T12:41:36;76193.56;;;-141.21;66.65
67697;BME280;54486;51.442;6.778;2024-02-14T12:44:07;76191.56;;;-141.21;66.34
67697;BME280;54486;51.442;6.778;2024-02-14T12:46:34;76249.59;;;-141.21;66.87